Station: COONAWARRA AWS

  Atmospheric Gas Attenuation - ITU Rec 676-11   --------------- db/100km ---------------
Date Time Temp RH % AH g/m3 Dew Point Wind Direction Speed kph Gust kph Barometer mB Rainfall Since 9am 24GHz 47GHz 76GHz 122GHz 134GHz 241GHz
16 18:30 17.3 64 9.43 10.6 24 37 1017.4 0 21.2 26.4 41.5 109.0 105.0 362.2
16 18:20 17.3 66 9.72 11 26 30 1017.4 0 21.8 26.8 42.7 112.1 108.8 375.4
16 18:10 17.3 68 10.02 11.4 24 30 1017.5 0 22.4 27.3 43.9 115.3 112.8 389.3
16 18:00 17.3 69 10.16 11.6 24 35 1017.5 0 22.7 27.5 44.4 116.8 114.7 395.8
16 17:50 17.6 71 10.65 12.4 19 24 1017.5 0 23.8 28.3 46.3 121.7 120.8 417.3
16 17:40 17.3 69 10.16 11.6 24 33 1017.5 0 22.7 27.5 44.4 116.8 114.7 395.8
16 17:30 16.7 74 10.52 12.1 26 41 1017.7 0 23.5 28.3 46.3 121.7 120.5 416.0
16 17:20 16.4 78 10.89 12.6 28 35 1017.7 0 24.3 29.1 48.0 126.3 126.0 435.4
16 17:10 16.9 72 10.36 11.8 30 33 1017.7 0 23.2 28.0 45.5 119.6 118.0 407.3
16 17:00 17.2 71 10.4 11.9 26 35 1017.7 0 23.2 28.0 45.5 119.6 118.1 407.6
16 16:50 16.4 81 11.3 13.2 24 35 1017.8 0 25.2 29.8 49.7 130.9 131.7 455.3
16 16:40 17.5 68 10.14 11.6 22 32 1017.8 0 22.7 27.5 44.3 116.3 114.1 394.0
16 16:30 18.3 61 9.54 10.7 28 39 1017.7 0 21.4 26.2 41.4 108.8 105.2 362.7
16 16:20 17.6 64 9.6 10.7 24 28 1017.8 0 21.5 26.6 42.0 110.4 106.9 368.6
16 16:10 17.6 64 9.6 10.7 24 26 1017.8 0 21.5 26.6 42.0 110.4 106.9 368.6
16 16:00 17.1 67 9.75 11 28 39 1017.9 0 21.9 27.0 42.9 112.7 109.6 377.9
16 15:50 17.8 61 9.26 10.3 24 32 1017.8 0 20.8 26.0 40.6 106.6 102.2 352.3
16 15:40 17.9 63 9.62 10.9 20 26 1017.9 0 21.5 26.5 42.0 110.2 106.7 368.2
16 15:30 17.5 63 9.39 10.4 30 41 1017.9 0 21.1 26.3 41.3 108.3 104.3 359.6
16 15:20 18.1 59 9.12 10 28 33 1018 0 20.5 25.7 39.9 104.7 100.1 344.8
16 15:10 18.2 58 9.01 9.9 30 37 1018 0 20.2 25.5 39.4 103.5 98.5 339.5
16 15:00 18 59 9.06 9.9 26 39 1018 0 20.4 25.6 39.7 104.2 99.4 342.6
16 14:50 18.6 56 8.91 9.7 26 30 1018 0 20.0 25.2 38.9 101.9 96.8 333.4
16 14:40 19.2 53 8.74 9.6 19 24 1018 0 19.6 24.8 37.9 99.5 93.9 323.5
16 14:30 18.1 56 8.65 9.3 30 41 1018.1 0 19.5 24.9 38.1 99.9 94.1 324.1
16 14:20 18.2 55 8.55 9 30 39 1018.1 0 19.3 24.8 37.7 98.8 92.8 319.3
16 14:10 18 54 8.29 8.7 24 30 1018.2 0 18.7 24.4 36.8 96.4 89.8 308.8
16 14:00 18.8 51 8.21 8.6 26 32 1018.2 0 18.5 24.1 36.1 94.7 87.9 302.3
16 13:50 18.5 53 8.38 8.7 22 35 1018.4 0 18.9 24.4 36.9 96.7 90.3 310.8
16 13:40 17.9 54 8.24 8.6 19 20 1018.5 0 18.6 24.4 36.7 96.1 89.3 307.1
16 13:30 18 53 8.14 8.5 20 33 1018.5 0 18.4 24.2 36.3 95.0 88.0 302.4
16 13:20 17.9 54 8.24 8.6 17 19 1018.6 0 18.6 24.4 36.7 96.1 89.3 307.1
16 13:10 17.6 54 8.1 8.2 20 28 1018.7 0 18.3 24.3 36.3 95.1 87.9 302.2
16 13:00 17.4 53 7.85 7.9 22 37 1018.7 0 17.8 23.9 35.4 92.8 85.1 292.2
16 12:50 17 57 8.25 8.4 26 30 1018.8 0 18.7 24.6 37.1 97.3 90.5 311.1
16 12:40 17.2 57 8.35 8.6 19 24 1018.9 0 18.9 24.7 37.4 98.1 91.5 314.7
16 12:30 17.2 56 8.2 8.4 20 32 1018.9 0 18.6 24.5 36.9 96.6 89.6 308.1
16 12:20 16.8 56 8.01 8.1 24 26 1019 0 18.2 24.3 36.3 95.1 87.7 301.4
16 12:10 16.4 61 8.51 9 17 28 1019.1 0 19.3 25.2 38.4 100.7 94.5 325.1
16 12:00 15.7 62 8.3 8.4 26 35 1019.1 0 18.9 25.1 37.9 99.4 92.6 318.5
16 11:50 15.6 59 7.85 7.6 24 30 1019.1 0 17.9 24.4 36.3 94.9 87.0 298.9
16 11:40 16.3 56 7.77 7.5 26 33 1019.1 0 17.7 24.1 35.6 93.3 85.3 292.8
16 11:30 16.1 55 7.54 7.2 22 33 1019 0 17.2 23.8 34.9 91.2 82.6 283.5
16 11:20 16.1 54 7.4 7 30 37 1019 0 16.9 23.6 34.3 89.8 80.9 277.5
16 11:10 16.4 53 7.4 6.9 22 28 1018.9 0 16.9 23.5 34.2 89.5 80.6 276.4
16 11:00 16.6 51 7.2 6.4 24 39 1018.9 0 16.5 23.2 33.4 87.3 78.0 267.2
16 10:50 16.1 52 7.13 6.2 19 22 1018.9 0 16.4 23.2 33.3 87.1 77.6 265.9
16 10:40 16.6 51 7.2 6.4 22 30 1018.9 0 16.5 23.2 33.4 87.3 78.0 267.2
16 10:30 15.9 50 6.77 5.7 26 39 1018.9 0 15.6 22.7 32.1 83.8 73.4 251.2
16 10:20 16.1 50 6.85 5.7 24 32 1019 0 15.8 22.8 32.3 84.4 74.2 254.0
16 10:10 15.2 50 6.49 5 24 26 1019.1 0 15.0 22.5 31.4 81.8 70.7 241.6
16 10:00 15.1 52 6.71 5.4 26 35 1019.2 0 15.5 22.8 32.2 84.1 73.5 251.2
16 09:50 14.9 54 6.88 5.7 24 32 1019.2 0 15.9 23.1 32.9 86.0 75.7 259.1
16 09:40 15 53 6.8 5.5 19 24 1019.2 0 15.7 23.0 32.6 85.1 74.7 255.4
16 09:30 14.6 55 6.88 5.8 24 35 1019.1 0 15.9 23.2 33.0 86.3 76.0 260.1
16 09:20 14.5 56 6.97 5.9 24 28 1019.2 0 16.1 23.4 33.4 87.3 77.2 264.3
16 09:10 14.6 56 7.01 6 28 35 1019.1 0 16.2 23.4 33.5 87.6 77.6 265.7
16 09:00 15.2 53 6.88 5.8 20 28 1019 0 15.9 23.0 32.8 85.6 75.4 258.1
16 08:50 15.2 54 7.01 6.1 15 20 1019.1 0.4 16.1 23.2 33.3 86.9 77.0 263.7
16 08:40 14.3 56 6.88 5.6 17 20 1019.1 0.4 15.9 23.3 33.1 86.6 76.3 261.1
16 08:30 14 56 6.75 5.5 20 30 1018.9 0.4 15.6 23.2 32.8 85.6 75.0 256.4
16 08:20 13.9 56 6.71 5.4 20 24 1018.8 0.4 15.6 23.1 32.7 85.3 74.6 254.9
16 08:10 14 56 6.75 5.5 17 20 1018.9 0.4 15.6 23.2 32.8 85.6 75.0 256.4
16 08:00 13.8 56 6.67 5.3 13 20 1018.6 0.4 15.5 23.1 32.5 85.0 74.2 253.5
16 07:50 13.7 58 6.87 5.6 9 9 1018.5 0.4 15.9 23.4 33.3 87.1 76.7 262.5
16 07:40 13.3 59 6.82 5.4 11 13 1018.3 0.4 15.8 23.4 33.3 87.0 76.5 261.5
16 07:30 13 59 6.69 5.3 11 15 1018.3 0.4 15.6 23.3 32.9 86.0 75.1 256.8
16 07:20 12.9 61 6.88 5.6 11 11 1018.3 0.4 16.0 23.6 33.7 88.1 77.6 265.5
16 07:10 12.8 61 6.83 5.5 13 13 1018 0.4 15.9 23.5 33.5 87.6 77.1 263.6
16 07:00 12.7 62 6.9 5.7 9 13 1017.8 0.4 16.0 23.7 33.8 88.4 78.0 266.9
16 06:50 12.4 64 6.99 5.8 7 9 1017.7 0.4 16.2 23.9 34.3 89.7 79.5 271.9
16 06:40 12.1 67 7.19 6.2 7 9 1017.6 0.4 16.7 24.3 35.2 92.1 82.3 281.9
16 06:30 12 69 7.35 6.5 9 13 1017.4 0.4 17.0 24.6 35.9 93.9 84.5 289.5
16 06:20 12 71 7.57 7 9 11 1017.4 0.4 17.5 24.9 36.7 96.2 87.3 299.5
16 06:10 12 71 7.57 7 9 11 1017.4 0.4 17.5 24.9 36.7 96.2 87.3 299.5
16 06:00 12.1 71 7.61 7.1 11 15 1017.3 0.4 17.5 24.9 36.8 96.5 87.7 300.9
16 05:50 11.9 75 7.94 7.6 11 13 1017.1 0.4 18.3 25.5 38.2 100.2 92.3 316.9
16 05:40 11.8 76 8 7.7 9 11 1017 0.4 18.4 25.6 38.5 101.0 93.2 320.0
16 05:30 11.7 74 7.74 7.3 7 11 1016.8 0.4 17.8 25.2 37.5 98.3 89.9 308.3
16 05:20 11.6 76 7.9 7.5 7 9 1016.8 0.4 18.2 25.5 38.2 100.2 92.1 316.1
16 05:10 11.4 75 7.7 7.2 11 11 1016.7 0.4 17.8 25.3 37.5 98.2 89.7 307.6
16 04:50 10.7 80 7.86 7.4 9 11 1016.5 0.4 18.1 25.7 38.5 100.8 92.6 317.8
16 04:40 10.2 82 7.81 7.3 9 11 1016.4 0.4 18.1 25.8 38.5 100.9 92.5 317.5
16 04:30 10.1 82 7.76 7.2 11 11 1016.4 0.4 18.0 25.7 38.4 100.5 92.0 315.5
16 04:20 10.5 82 7.95 7.6 9 11 1016.3 0.4 18.3 25.9 38.9 102.1 94.1 322.8
16 04:10 11.1 80 8.06 7.8 9 9 1016.2 0.4 18.6 25.9 39.1 102.5 94.8 325.5
16 04:00 11.7 77 8.05 7.8 9 15 1016.2 0.4 18.5 25.7 38.7 101.6 93.9 322.6
16 03:50 12 77 8.21 8.1 11 13 1016.3 0.4 18.8 25.9 39.3 102.9 95.7 328.8
16 03:40 11.9 81 8.58 8.7 9 11 1016.3 0.4 19.6 26.5 40.8 107.1 100.8 346.7
16 03:30 11.9 81 8.58 8.7 9 13 1016.3 0.4 19.6 26.5 40.8 107.1 100.8 346.7
16 03:20 11.8 82 8.63 8.8 11 13 1016.4 0.4 19.7 26.7 41.1 107.8 101.7 349.6
16 03:10 11.7 83 8.68 8.9 11 13 1016.5 0.4 19.9 26.8 41.3 108.5 102.5 352.4
16 03:00 11.6 83 8.63 8.8 11 15 1016.6 0.4 19.8 26.7 41.2 108.1 101.9 350.5
16 02:50 11.4 84 8.62 8.8 11 13 1016.8 0.4 19.7 26.8 41.3 108.3 102.1 351.0
16 02:40 11.3 84 8.57 8.7 11 13 1016.8 0.4 19.6 26.7 41.1 107.9 101.5 349.1
16 02:30 11.1 86 8.66 8.9 13 15 1016.8 0.4 19.8 26.9 41.6 109.2 103.0 354.3
16 02:20 11 86 8.61 8.8 11 15 1016.9 0.4 19.7 26.9 41.4 108.8 102.5 352.4
16 02:10 11.1 86 8.66 8.9 13 15 1016.8 0.4 19.8 26.9 41.6 109.2 103.0 354.3
16 02:00 10.8 89 8.8 9 11 15 1016.9 0.4 20.2 27.3 42.3 111.2 105.4 362.5
16 01:50 10.3 90 8.62 8.7 11 13 1017 0.4 19.8 27.1 41.9 109.9 103.6 356.1

Last Refresh: 16-Jan-2021 18:38:04

Most of the information presented on this site is sourced from the Bureau of Meteorology.  Copyright in all material sourced from the Bureau of Meteorology resides with the Commonwealth of Australia.